Time;durP1;ratioP1;P1;durP2;ratioP2;P2;SDS_P1;SDS_P2;PMS_P1;PMS_P2;Temp;Humidity;BMP_temperature;BMP_pressure;BME280_temperature;BME280_humidity;BME280_pressure;Samples;Min_cycle;Max_cycle;Signal;HPM_P1;HPM_P2
2021/09/16 00:00:07;;;;;;;5.68;1.88;;;18.40;99.90;;;;;;2072019;28;20493;-68
2021/09/16 00:01:07;;;;;;;4.43;1.65;;;18.40;99.90;;;;;;2071045;28;20355;-68
2021/09/16 00:02:08;;;;;;;7.45;2.05;;;18.40;99.90;;;;;;2068898;28;20069;-68
2021/09/16 00:03:08;;;;;;;5.03;1.70;;;18.40;99.90;;;;;;2063967;28;20018;-68
2021/09/16 00:04:09;;;;;;;4.22;1.40;;;18.40;99.90;;;;;;2071837;28;20022;-68
2021/09/16 00:05:10;;;;;;;3.03;1.42;;;18.50;99.90;;;;;;2071088;28;20057;-68
2021/09/16 00:06:11;;;;;;;3.95;1.63;;;18.50;99.90;;;;;;2071539;28;20433;-68
2021/09/16 00:07:11;;;;;;;4.70;1.80;;;18.40;99.90;;;;;;2071018;28;20030;-68
2021/09/16 00:08:12;;;;;;;5.00;1.73;;;18.40;99.90;;;;;;2072018;28;20022;-68
2021/09/16 00:09:12;;;;;;;2.92;1.35;;;18.40;99.90;;;;;;2064310;28;20105;-68
2021/09/16 00:10:14;;;;;;;2.20;1.20;;;18.40;99.90;;;;;;2071291;28;20072;-68
2021/09/16 00:11:15;;;;;;;5.72;1.70;;;18.40;99.90;;;;;;2071298;28;20113;-68
2021/09/16 00:12:16;;;;;;;5.00;1.60;;;18.40;99.90;;;;;;2071345;28;20022;-68
2021/09/16 00:13:16;;;;;;;2.22;1.40;;;18.40;99.90;;;;;;2067185;28;20048;-68
2021/09/16 00:14:17;;;;;;;3.58;1.88;;;18.40;99.90;;;;;;2063150;28;20018;-68
2021/09/16 00:15:17;;;;;;;8.38;2.28;;;18.40;99.90;;;;;;2063884;28;20034;-68
2021/09/16 00:16:18;;;;;;;6.50;2.08;;;18.40;99.90;;;;;;2065676;28;20486;-68
2021/09/16 00:17:18;;;;;;;2.95;1.42;;;18.40;99.90;;;;;;2066380;28;20030;-68
2021/09/16 00:18:19;;;;;;;3.53;1.50;;;18.40;99.90;;;;;;2069701;28;20026;-69
2021/09/16 00:19:20;;;;;;;8.57;2.13;;;18.40;99.90;;;;;;2071147;28;20120;-68
2021/09/16 00:20:20;;;;;;;8.50;1.60;;;18.30;99.90;;;;;;2064503;28;20026;-68
2021/09/16 00:21:21;;;;;;;2.15;1.60;;;18.30;99.90;;;;;;2063314;28;20034;-68
2021/09/16 00:22:22;;;;;;;3.80;1.48;;;18.30;99.90;;;;;;2062759;28;20058;-68
2021/09/16 00:23:23;;;;;;;3.30;1.60;;;18.30;99.90;;;;;;2062846;28;20487;-68
2021/09/16 00:24:23;;;;;;;4.65;1.38;;;18.30;99.90;;;;;;2069212;28;20034;-68
2021/09/16 00:25:24;;;;;;;3.25;1.42;;;18.30;99.90;;;;;;2071803;28;20030;-68
2021/09/16 00:26:25;;;;;;;7.40;1.42;;;18.30;99.90;;;;;;2069411;28;20038;-68
2021/09/16 00:27:25;;;;;;;11.90;1.98;;;18.30;99.90;;;;;;2063440;28;20018;-68
2021/09/16 00:28:26;;;;;;;4.05;1.40;;;18.30;99.90;;;;;;2064292;28;20062;-68
2021/09/16 00:29:26;;;;;;;3.63;1.70;;;18.30;99.90;;;;;;2063435;28;20316;-68
2021/09/16 00:30:27;;;;;;;1.67;1.30;;;18.30;99.90;;;;;;2063865;28;20023;-68
2021/09/16 00:31:27;;;;;;;4.45;1.67;;;18.30;99.90;;;;;;2066179;28;20643;-68
2021/09/16 00:32:28;;;;;;;3.85;1.63;;;18.30;99.90;;;;;;2067840;28;20034;-68
2021/09/16 00:33:29;;;;;;;4.47;1.55;;;18.20;99.90;;;;;;2063218;28;20479;-68
2021/09/16 00:34:29;;;;;;;6.53;1.67;;;18.20;99.90;;;;;;2065731;28;20085;-68
2021/09/16 00:35:30;;;;;;;5.25;1.50;;;18.30;99.90;;;;;;2071627;28;20030;-68
2021/09/16 00:36:30;;;;;;;4.00;1.50;;;18.20;99.90;;;;;;2071343;28;20038;-68
2021/09/16 00:37:31;;;;;;;5.07;1.35;;;18.20;99.90;;;;;;2078816;28;20049;-68
2021/09/16 00:38:32;;;;;;;3.28;1.25;;;18.20;99.90;;;;;;2079044;28;20112;-69
2021/09/16 00:39:33;;;;;;;3.75;1.30;;;18.20;99.90;;;;;;2070775;28;20157;-68
2021/09/16 00:40:34;;;;;;;4.93;1.80;;;18.20;99.90;;;;;;2070820;28;20034;-68
2021/09/16 00:41:34;;;;;;;4.82;1.88;;;18.20;99.90;;;;;;2064410;28;20552;-68
2021/09/16 00:42:35;;;;;;;6.22;1.40;;;18.20;99.90;;;;;;2067578;28;20493;-68
2021/09/16 00:43:35;;;;;;;3.33;1.40;;;18.20;99.90;;;;;;2078500;28;20111;-68
2021/09/16 00:44:36;;;;;;;2.95;1.48;;;18.20;99.90;;;;;;2078660;28;20025;-68
2021/09/16 00:45:36;;;;;;;4.88;1.50;;;18.10;99.90;;;;;;2071150;28;20026;-68
2021/09/16 00:46:37;;;;;;;4.45;1.52;;;18.10;99.90;;;;;;2063503;28;20050;-68
2021/09/16 00:47:45;;;;;;;3.92;1.38;;;18.10;99.90;;;;;;2063742;28;20090;-69
2021/09/16 00:48:46;;;;;;;3.40;1.25;;;18.10;99.90;;;;;;2064554;28;20050;-69
2021/09/16 00:49:46;;;;;;;5.45;1.00;;;18.10;99.90;;;;;;2066855;28;20050;-68
2021/09/16 00:50:47;;;;;;;3.63;1.33;;;18.00;99.90;;;;;;2071323;28;20034;-68
2021/09/16 00:51:48;;;;;;;3.88;1.42;;;18.00;99.90;;;;;;2071550;28;20029;-68
2021/09/16 00:52:50;;;;;;;4.05;1.40;;;18.00;99.90;;;;;;2065198;28;20033;-68
2021/09/16 00:53:54;;;;;;;5.18;1.63;;;18.00;99.90;;;;;;2069740;28;20029;-68
2021/09/16 00:54:54;;;;;;;4.90;1.45;;;18.00;99.90;;;;;;2071634;28;20470;-68
2021/09/16 00:55:57;;;;;;;4.82;1.40;;;17.90;99.90;;;;;;2066354;28;20426;-68
2021/09/16 00:57:00;;;;;;;2.05;1.00;;;17.90;99.90;;;;;;2063456;28;20659;-68
2021/09/16 00:58:03;;;;;;;3.78;1.60;;;17.90;99.90;;;;;;2063512;28;20033;-69
2021/09/16 00:59:05;;;;;;;2.90;1.27;;;18.00;99.90;;;;;;2063304;28;20050;-68
2021/09/16 01:00:09;;;;;;;2.22;1.27;;;17.90;99.90;;;;;;2063288;28;20065;-68
2021/09/16 01:01:09;;;;;;;1.88;1.20;;;17.90;99.90;;;;;;2071310;28;20104;-69
2021/09/16 01:02:11;;;;;;;4.00;1.27;;;17.90;99.90;;;;;;2070638;28;20026;-69
2021/09/16 01:03:12;;;;;;;3.58;1.30;;;17.90;99.90;;;;;;2070618;28;20029;-69
2021/09/16 01:04:12;;;;;;;2.15;1.10;;;17.90;99.90;;;;;;2071360;28;20029;-69
2021/09/16 01:05:13;;;;;;;3.67;1.10;;;17.90;99.90;;;;;;2069852;28;20398;-69
2021/09/16 01:06:13;;;;;;;8.07;1.98;;;17.90;99.90;;;;;;2063235;28;20598;-69
2021/09/16 01:07:14;;;;;;;1.95;1.48;;;17.90;99.90;;;;;;2063268;28;20028;-69
2021/09/16 01:08:15;;;;;;;7.70;1.30;;;17.90;99.90;;;;;;2067575;28;20042;-69
2021/09/16 01:09:15;;;;;;;4.88;1.55;;;17.90;99.90;;;;;;2063620;28;20027;-69
2021/09/16 01:10:16;;;;;;;4.32;1.17;;;17.90;99.90;;;;;;2064340;28;20117;-69
2021/09/16 01:11:19;;;;;;;4.03;1.20;;;17.90;99.90;;;;;;2071558;28;20018;-69
2021/09/16 01:12:19;;;;;;;2.70;1.02;;;17.90;99.90;;;;;;2071159;28;20018;-69
2021/09/16 01:13:20;;;;;;;3.45;1.33;;;17.90;99.90;;;;;;2070630;28;20814;-69
2021/09/16 01:14:25;;;;;;;2.60;1.50;;;17.90;99.90;;;;;;2071380;28;20067;-69
2021/09/16 01:15:25;;;;;;;4.20;1.55;;;17.90;99.90;;;;;;2069117;28;20034;-69
2021/09/16 01:16:26;;;;;;;4.13;1.90;;;17.80;99.90;;;;;;2071282;28;20087;-69
2021/09/16 01:17:26;;;;;;;3.15;1.67;;;17.80;99.90;;;;;;2071842;28;20036;-69
2021/09/16 01:18:27;;;;;;;1.73;1.30;;;17.80;99.90;;;;;;2070235;28;20397;-69
2021/09/16 01:19:28;;;;;;;6.05;1.40;;;17.80;99.90;;;;;;2064730;28;20064;-69
2021/09/16 01:20:28;;;;;;;3.47;1.63;;;17.80;99.90;;;;;;2069326;28;20050;-69
2021/09/16 01:21:29;;;;;;;3.53;1.60;;;17.80;99.90;;;;;;2071402;28;20026;-69
2021/09/16 01:22:32;;;;;;;5.15;1.70;;;17.80;99.90;;;;;;2071301;28;20053;-69
2021/09/16 01:23:32;;;;;;;3.20;1.38;;;17.80;99.90;;;;;;2069267;28;20049;-69
2021/09/16 01:24:33;;;;;;;3.35;1.67;;;17.90;99.90;;;;;;2071370;28;20818;-69
2021/09/16 01:25:34;;;;;;;2.92;1.38;;;17.80;99.90;;;;;;2071194;28;20030;-69
2021/09/16 01:26:34;;;;;;;4.28;1.50;;;17.90;99.90;;;;;;2067792;28;20112;-69
2021/09/16 01:27:35;;;;;;;3.70;1.60;;;17.90;99.90;;;;;;2068441;28;20025;-69
2021/09/16 01:28:35;;;;;;;2.63;1.38;;;17.90;99.90;;;;;;2072281;28;20116;-69
2021/09/16 01:29:36;;;;;;;3.65;1.80;;;17.90;99.90;;;;;;2072791;28;20046;-69
2021/09/16 01:30:37;;;;;;;4.82;1.70;;;18.00;99.90;;;;;;2067607;28;20018;-69
2021/09/16 01:31:43;;;;;;;3.45;1.48;;;18.00;99.90;;;;;;2069363;28;20169;-69
2021/09/16 01:32:44;;;;;;;2.97;1.48;;;18.00;99.90;;;;;;2068948;28;20100;-69
2021/09/16 01:33:44;;;;;;;5.10;1.50;;;17.90;99.90;;;;;;2064903;28;20023;-69
2021/09/16 01:34:45;;;;;;;3.67;1.30;;;17.90;99.90;;;;;;2068490;28;20406;-69
2021/09/16 01:35:46;;;;;;;5.00;1.55;;;17.90;99.90;;;;;;2072321;28;20096;-69
2021/09/16 01:36:49;;;;;;;2.17;1.27;;;17.90;99.90;;;;;;2067865;28;20041;-69
2021/09/16 01:37:49;;;;;;;2.97;1.65;;;17.90;99.90;;;;;;2072810;28;20034;-69
2021/09/16 01:38:50;;;;;;;2.50;1.48;;;17.90;99.90;;;;;;2071987;28;20034;-69
2021/09/16 01:39:51;;;;;;;5.82;1.73;;;17.90;99.90;;;;;;2066222;28;20026;-69
2021/09/16 01:40:52;;;;;;;4.18;1.85;;;17.90;99.90;;;;;;2064361;28;20475;-69
2021/09/16 01:41:53;;;;;;;3.28;1.52;;;17.90;99.90;;;;;;2065751;28;20414;-69
2021/09/16 01:42:53;;;;;;;4.78;1.63;;;17.90;99.90;;;;;;2064344;28;20034;-69
2021/09/16 01:43:54;;;;;;;2.30;1.40;;;17.90;99.90;;;;;;2071921;28;20041;-69
2021/09/16 01:44:55;;;;;;;4.25;1.70;;;18.00;99.90;;;;;;2072515;28;20033;-69
2021/09/16 01:45:55;;;;;;;3.47;1.77;;;18.00;99.90;;;;;;2071982;28;20037;-69
2021/09/16 01:46:56;;;;;;;5.93;1.70;;;17.90;99.90;;;;;;2072802;28;20026;-69
2021/09/16 01:47:56;;;;;;;2.20;1.70;;;17.90;99.90;;;;;;2066174;28;20101;-69
2021/09/16 01:48:59;;;;;;;6.00;1.70;;;17.90;99.90;;;;;;2068842;28;20049;-69
2021/09/16 01:49:59;;;;;;;2.17;1.38;;;17.90;99.90;;;;;;2067411;28;20030;-69
2021/09/16 01:51:00;;;;;;;2.80;1.60;;;17.90;99.90;;;;;;2072839;28;20033;-69
2021/09/16 01:52:01;;;;;;;4.10;1.58;;;17.90;99.90;;;;;;2071899;28;20028;-69
2021/09/16 01:53:01;;;;;;;3.17;1.48;;;17.90;99.90;;;;;;2064237;28;20041;-69
2021/09/16 01:54:04;;;;;;;4.57;1.70;;;17.90;99.90;;;;;;2067894;28;20026;-69
2021/09/16 01:55:06;;;;;;;4.05;1.40;;;17.90;99.90;;;;;;2072738;28;20054;-69
2021/09/16 01:56:06;;;;;;;2.13;1.27;;;17.90;99.90;;;;;;2072369;28;20425;-69
2021/09/16 01:57:07;;;;;;;3.65;1.70;;;17.90;99.90;;;;;;2069793;28;20026;-69
2021/09/16 01:58:07;;;;;;;3.67;1.75;;;17.90;99.90;;;;;;2067632;28;20018;-69
2021/09/16 01:59:08;;;;;;;6.97;2.30;;;17.90;99.90;;;;;;2072935;28;20053;-69
2021/09/16 02:00:09;;;;;;;3.13;1.80;;;17.90;99.90;;;;;;2072396;28;20021;-69
2021/09/16 02:01:10;;;;;;;3.95;1.73;;;17.90;99.90;;;;;;2064648;28;20014;-69
2021/09/16 02:02:11;;;;;;;9.43;1.90;;;17.90;99.90;;;;;;2067151;28;20022;-69
2021/09/16 02:03:11;;;;;;;5.47;2.00;;;17.90;99.90;;;;;;2071820;28;20026;-69
2021/09/16 02:04:12;;;;;;;2.50;1.60;;;17.90;99.90;;;;;;2070059;28;20026;-69
2021/09/16 02:05:13;;;;;;;3.67;1.60;;;17.90;99.90;;;;;;2070177;28;20095;-69
2021/09/16 02:06:14;;;;;;;3.67;1.80;;;17.90;99.90;;;;;;2068739;28;20072;-69
2021/09/16 02:07:14;;;;;;;3.35;1.88;;;17.90;99.90;;;;;;2067957;28;20463;-69
2021/09/16 02:08:15;;;;;;;2.95;1.60;;;17.90;99.90;;;;;;2066152;28;20018;-69
2021/09/16 02:09:15;;;;;;;5.28;1.40;;;17.90;99.90;;;;;;2072623;28;20030;-69
2021/09/16 02:10:16;;;;;;;3.25;1.50;;;17.90;99.90;;;;;;2069740;28;20022;-69
2021/09/16 02:11:16;;;;;;;4.75;1.98;;;17.90;99.90;;;;;;2071895;28;20057;-69
2021/09/16 02:12:17;;;;;;;5.68;2.10;;;17.90;99.90;;;;;;2073043;28;20472;-69
2021/09/16 02:13:18;;;;;;;3.55;1.70;;;17.90;99.90;;;;;;2067622;28;20044;-69
2021/09/16 02:14:18;;;;;;;3.63;1.40;;;17.90;99.90;;;;;;2065353;28;20022;-69
2021/09/16 02:15:19;;;;;;;4.15;1.73;;;17.90;99.90;;;;;;2064455;28;20018;-69
2021/09/16 02:16:19;;;;;;;2.85;1.70;;;17.90;99.90;;;;;;2064339;28;20057;-69
2021/09/16 02:17:20;;;;;;;2.13;1.60;;;17.80;99.90;;;;;;2064373;28;20018;-69
2021/09/16 02:18:20;;;;;;;4.97;1.85;;;17.90;99.90;;;;;;2066487;28;20030;-69
2021/09/16 02:19:21;;;;;;;4.07;1.65;;;17.80;99.90;;;;;;2067870;28;20034;-69
2021/09/16 02:20:21;;;;;;;6.30;1.75;;;17.80;99.90;;;;;;2066154;28;20030;-69
2021/09/16 02:21:22;;;;;;;3.83;1.52;;;17.90;99.90;;;;;;2068090;28;20025;-69
2021/09/16 02:22:22;;;;;;;2.47;1.60;;;17.90;99.90;;;;;;2072610;28;20455;-69
2021/09/16 02:23:23;;;;;;;3.50;1.70;;;17.80;99.90;;;;;;2072013;28;20076;-69
2021/09/16 02:24:24;;;;;;;3.55;1.85;;;17.80;99.90;;;;;;2072218;28;20028;-69
2021/09/16 02:25:24;;;;;;;3.65;1.50;;;17.80;99.90;;;;;;2071915;28;20398;-69
2021/09/16 02:26:25;;;;;;;3.70;1.50;;;17.80;99.90;;;;;;2072180;28;20573;-69
2021/09/16 02:27:26;;;;;;;4.43;1.60;;;17.80;99.90;;;;;;2072476;28;20050;-69
2021/09/16 02:28:26;;;;;;;4.57;1.50;;;17.80;99.90;;;;;;2067659;28;20113;-69
2021/09/16 02:29:27;;;;;;;2.95;1.50;;;17.80;99.90;;;;;;2063642;28;20545;-69
2021/09/16 02:30:27;;;;;;;3.80;1.63;;;17.80;99.90;;;;;;2064309;28;20073;-69
2021/09/16 02:31:28;;;;;;;4.05;1.83;;;17.80;99.90;;;;;;2072971;28;20108;-68
2021/09/16 02:32:28;;;;;;;8.35;1.85;;;17.80;99.90;;;;;;2071650;28;20417;-69
2021/09/16 02:33:32;;;;;;;5.60;1.67;;;17.70;99.90;;;;;;2067925;28;20089;-69
2021/09/16 02:34:33;;;;;;;3.20;1.67;;;17.70;99.90;;;;;;2071066;28;20545;-69
2021/09/16 02:35:33;;;;;;;5.55;1.60;;;17.70;99.90;;;;;;2064691;28;20049;-69
2021/09/16 02:36:34;;;;;;;4.65;1.40;;;17.70;99.90;;;;;;2064521;28;20034;-69
2021/09/16 02:37:34;;;;;;;3.28;1.60;;;17.70;99.90;;;;;;2064114;28;20474;-69
2021/09/16 02:38:35;;;;;;;7.25;1.85;;;17.70;99.90;;;;;;2065440;28;20026;-69
2021/09/16 02:39:36;;;;;;;4.97;1.73;;;17.70;99.90;;;;;;2063932;28;20022;-69
2021/09/16 02:40:36;;;;;;;4.22;1.73;;;17.70;99.90;;;;;;2063559;28;20145;-69
2021/09/16 02:41:37;;;;;;;5.03;1.63;;;17.70;99.90;;;;;;2063853;28;20034;-69
2021/09/16 02:42:38;;;;;;;8.30;1.70;;;17.70;99.90;;;;;;2064017;28;20041;-69
2021/09/16 02:43:38;;;;;;;4.10;1.33;;;17.70;99.90;;;;;;2068481;28;20037;-69
2021/09/16 02:44:39;;;;;;;4.03;1.60;;;17.70;99.90;;;;;;2072222;28;20049;-69
2021/09/16 02:45:39;;;;;;;1.40;1.20;;;17.70;99.90;;;;;;2071078;28;20068;-69
2021/09/16 02:46:40;;;;;;;3.15;1.35;;;17.70;99.90;;;;;;2064239;28;20054;-69
2021/09/16 02:47:40;;;;;;;3.55;1.50;;;17.70;99.90;;;;;;2063907;28;20038;-69
2021/09/16 02:48:41;;;;;;;3.42;1.38;;;17.70;99.90;;;;;;2065202;28;20023;-69
2021/09/16 02:49:41;;;;;;;4.03;1.05;;;17.70;99.90;;;;;;2068624;28;20438;-69
2021/09/16 02:50:42;;;;;;;5.75;1.58;;;17.60;99.90;;;;;;2067794;28;20034;-69
2021/09/16 02:51:43;;;;;;;5.40;1.50;;;17.60;99.90;;;;;;2063958;28;20022;-69
2021/09/16 02:52:43;;;;;;;3.45;1.40;;;17.70;99.90;;;;;;2063969;28;20049;-69
2021/09/16 02:53:44;;;;;;;8.30;1.52;;;17.60;99.90;;;;;;2069914;28;20058;-69
2021/09/16 02:54:44;;;;;;;3.00;1.25;;;17.60;99.90;;;;;;2072145;28;20038;-69
2021/09/16 02:55:45;;;;;;;3.35;1.10;;;17.60;99.90;;;;;;2068073;28;20058;-69
2021/09/16 02:56:45;;;;;;;4.30;1.60;;;17.60;99.90;;;;;;2064037;28;20032;-69
2021/09/16 02:57:46;;;;;;;4.30;1.50;;;17.60;99.90;;;;;;2064181;28;20053;-69
2021/09/16 02:58:47;;;;;;;3.92;1.25;;;17.60;99.90;;;;;;2074201;28;20084;-69
2021/09/16 02:59:47;;;;;;;2.50;1.10;;;17.60;99.90;;;;;;2079774;28;20788;-69
2021/09/16 03:00:48;;;;;;;3.75;1.10;;;17.50;99.90;;;;;;2067065;28;20109;-69
2021/09/16 03:01:48;;;;;;;4.95;1.52;;;17.60;99.90;;;;;;2064045;28;20034;-69
2021/09/16 03:02:49;;;;;;;3.47;1.48;;;17.50;99.90;;;;;;2063823;28;20062;-69
2021/09/16 03:03:50;;;;;;;5.13;1.30;;;17.50;99.90;;;;;;2070378;28;20405;-69
2021/09/16 03:04:50;;;;;;;4.63;1.30;;;17.50;99.90;;;;;;2072090;28;20037;-69
2021/09/16 03:05:51;;;;;;;2.78;1.20;;;17.50;99.90;;;;;;2071335;28;20053;-69
2021/09/16 03:06:51;;;;;;;4.95;1.70;;;17.50;99.90;;;;;;2072137;28;20049;-69
2021/09/16 03:07:52;;;;;;;3.63;1.42;;;17.50;99.90;;;;;;2071876;28;20084;-69
2021/09/16 03:08:52;;;;;;;4.45;1.55;;;17.50;99.90;;;;;;2066003;28;20027;-69
2021/09/16 03:09:53;;;;;;;2.35;1.15;;;17.50;99.90;;;;;;2064002;28;20054;-69
2021/09/16 03:10:53;;;;;;;2.67;1.17;;;17.50;99.90;;;;;;2063251;28;20033;-69
2021/09/16 03:11:54;;;;;;;2.25;1.05;;;17.50;99.90;;;;;;2063139;28;20037;-69
2021/09/16 03:12:56;;;;;;;4.93;1.30;;;17.50;99.90;;;;;;2063518;28;20359;-69
2021/09/16 03:13:56;;;;;;;2.65;1.17;;;17.50;99.90;;;;;;2071214;28;20032;-69
2021/09/16 03:14:57;;;;;;;4.55;1.48;;;17.40;99.90;;;;;;2070034;28;20022;-69
2021/09/16 03:15:57;;;;;;;2.47;1.30;;;17.50;99.90;;;;;;2064412;28;20050;-69
2021/09/16 03:16:58;;;;;;;4.55;1.85;;;17.40;99.90;;;;;;2063806;28;20030;-69
2021/09/16 03:17:59;;;;;;;3.65;1.20;;;17.50;99.90;;;;;;2063962;28;20053;-69
2021/09/16 03:18:59;;;;;;;5.03;1.80;;;17.40;99.90;;;;;;2064968;28;20031;-69
2021/09/16 03:20:00;;;;;;;6.43;1.73;;;17.40;99.90;;;;;;2067019;28;20061;-69
2021/09/16 03:21:00;;;;;;;5.10;1.70;;;17.40;99.90;;;;;;2070527;28;20447;-69
2021/09/16 03:22:01;;;;;;;5.78;1.58;;;17.40;99.90;;;;;;2071884;28;20022;-69
2021/09/16 03:23:01;;;;;;;4.75;1.70;;;17.40;99.90;;;;;;2070607;28;20036;-69
2021/09/16 03:24:03;;;;;;;3.50;1.58;;;17.40;99.90;;;;;;2064155;28;20043;-69
2021/09/16 03:25:05;;;;;;;5.63;2.10;;;17.40;99.90;;;;;;2063819;28;20027;-69
2021/09/16 03:26:05;;;;;;;5.70;1.58;;;17.30;99.90;;;;;;2063493;28;20023;-69
2021/09/16 03:27:06;;;;;;;6.18;2.55;;;17.30;99.90;;;;;;2071435;28;20116;-69
2021/09/16 03:28:06;;;;;;;4.70;1.52;;;17.30;99.90;;;;;;2071554;28;20037;-69
2021/09/16 03:29:07;;;;;;;4.55;1.55;;;17.30;99.90;;;;;;2071130;28;20378;-69
2021/09/16 03:30:11;;;;;;;4.25;1.50;;;17.30;99.90;;;;;;2068534;28;20454;-69
2021/09/16 03:31:12;;;;;;;5.00;1.42;;;17.30;99.90;;;;;;2067294;28;20629;-69
2021/09/16 03:32:12;;;;;;;3.33;1.30;;;17.20;99.90;;;;;;2070667;28;20462;-69
2021/09/16 03:33:13;;;;;;;2.22;1.38;;;17.20;99.90;;;;;;2066598;28;20034;-69
2021/09/16 03:34:14;;;;;;;4.28;1.48;;;17.20;99.90;;;;;;2064069;28;20061;-69
2021/09/16 03:35:14;;;;;;;3.58;1.70;;;17.20;99.90;;;;;;2067016;28;20054;-69
2021/09/16 03:36:15;;;;;;;5.32;1.60;;;17.20;99.90;;;;;;2063865;28;20018;-69
2021/09/16 03:37:15;;;;;;;4.00;1.33;;;17.20;99.90;;;;;;2063653;28;20018;-69
2021/09/16 03:38:16;;;;;;;3.42;1.45;;;17.20;99.90;;;;;;2063930;28;20053;-69
2021/09/16 03:39:16;;;;;;;2.45;1.65;;;17.20;99.90;;;;;;2069871;28;20517;-69
2021/09/16 03:40:17;;;;;;;5.88;2.05;;;17.20;99.90;;;;;;2071004;28;20028;-69
2021/09/16 03:41:17;;;;;;;7.53;2.03;;;17.20;99.90;;;;;;2071288;28;20032;-69
2021/09/16 03:42:18;;;;;;;3.97;1.52;;;17.20;99.90;;;;;;2071321;28;20497;-69
2021/09/16 03:43:19;;;;;;;5.32;1.48;;;17.20;99.90;;;;;;2065255;28;20479;-69
2021/09/16 03:44:19;;;;;;;8.48;1.98;;;17.10;99.90;;;;;;2071806;28;20490;-69
2021/09/16 03:45:20;;;;;;;3.85;1.67;;;17.10;99.90;;;;;;2071426;28;20021;-69
2021/09/16 03:46:20;;;;;;;5.57;1.88;;;17.10;99.90;;;;;;2064937;28;20030;-69
2021/09/16 03:47:21;;;;;;;13.02;2.10;;;17.10;99.90;;;;;;2063732;28;20052;-69
2021/09/16 03:48:21;;;;;;;3.35;1.60;;;17.10;99.90;;;;;;2064696;28;20034;-69
2021/09/16 03:49:22;;;;;;;4.80;2.38;;;17.00;99.90;;;;;;2063877;28;20089;-69
2021/09/16 03:50:23;;;;;;;6.22;1.70;;;17.00;99.90;;;;;;2070539;28;20467;-69
2021/09/16 03:51:23;;;;;;;4.93;1.77;;;17.00;99.90;;;;;;2071823;28;20022;-69
2021/09/16 03:52:24;;;;;;;3.75;1.38;;;17.00;99.90;;;;;;2068637;28;20046;-69
2021/09/16 03:53:24;;;;;;;4.03;1.58;;;17.10;99.90;;;;;;2063438;28;20402;-69
2021/09/16 03:54:25;;;;;;;5.63;1.95;;;17.00;99.90;;;;;;2063585;28;20026;-69
2021/09/16 03:55:26;;;;;;;4.95;2.30;;;17.00;99.90;;;;;;2063638;28;20391;-69
2021/09/16 03:56:26;;;;;;;5.82;1.63;;;17.10;99.90;;;;;;2070034;28;20034;-69
2021/09/16 03:57:27;;;;;;;5.10;1.88;;;17.00;99.90;;;;;;2071771;28;20032;-69
2021/09/16 03:58:27;;;;;;;4.43;1.63;;;17.00;99.90;;;;;;2069898;28;20394;-69
2021/09/16 03:59:28;;;;;;;4.07;1.75;;;17.00;99.90;;;;;;2063688;28;20049;-69
2021/09/16 04:00:28;;;;;;;4.18;1.77;;;17.00;99.90;;;;;;2063461;28;20026;-69
2021/09/16 04:01:29;;;;;;;4.68;1.60;;;17.10;99.90;;;;;;2063841;28;20437;-69
2021/09/16 04:02:30;;;;;;;6.22;2.15;;;17.00;99.90;;;;;;2068965;28;20132;-69
2021/09/16 04:03:30;;;;;;;5.30;1.75;;;17.00;99.90;;;;;;2067421;28;20991;-69
2021/09/16 04:04:31;;;;;;;3.67;1.98;;;17.00;99.90;;;;;;2063600;28;20080;-69
2021/09/16 04:05:31;;;;;;;5.82;1.88;;;17.00;99.90;;;;;;2065047;28;20117;-69
2021/09/16 04:06:32;;;;;;;3.72;1.70;;;17.00;99.90;;;;;;2063300;28;20089;-69
2021/09/16 04:07:32;;;;;;;6.50;2.13;;;17.00;99.90;;;;;;2063607;28;20053;-69
2021/09/16 04:08:33;;;;;;;3.80;1.90;;;16.90;99.90;;;;;;2066730;28;20091;-69
2021/09/16 04:09:33;;;;;;;3.67;1.73;;;16.90;99.90;;;;;;2071876;28;20190;-69
2021/09/16 04:10:35;;;;;;;3.92;1.58;;;16.90;99.90;;;;;;2071693;28;20030;-69
2021/09/16 04:11:35;;;;;;;6.65;1.80;;;16.90;99.90;;;;;;2071159;28;20569;-69
2021/09/16 04:12:36;;;;;;;4.57;1.80;;;16.90;99.90;;;;;;2063129;28;20430;-69
2021/09/16 04:13:37;;;;;;;4.93;2.08;;;16.90;99.90;;;;;;2064256;28;20029;-69
2021/09/16 04:14:37;;;;;;;6.70;2.25;;;16.90;99.90;;;;;;2071703;28;20428;-69
2021/09/16 04:15:38;;;;;;;5.15;2.35;;;16.90;99.90;;;;;;2071630;28;20025;-69
2021/09/16 04:16:38;;;;;;;8.10;2.72;;;16.90;99.90;;;;;;2067289;28;20034;-69
2021/09/16 04:17:39;;;;;;;5.32;2.33;;;16.90;99.90;;;;;;2066905;28;20033;-69
2021/09/16 04:18:40;;;;;;;8.05;2.47;;;16.80;99.90;;;;;;2070256;28;20025;-69
2021/09/16 04:19:40;;;;;;;9.05;2.78;;;16.80;99.90;;;;;;2071100;28;20050;-69
2021/09/16 04:20:41;;;;;;;4.38;2.63;;;16.80;99.90;;;;;;2071349;28;20049;-69
2021/09/16 04:21:41;;;;;;;6.70;2.50;;;16.80;99.90;;;;;;2070729;28;20038;-69
2021/09/16 04:22:42;;;;;;;5.68;2.50;;;16.80;99.90;;;;;;2071267;28;20034;-69
2021/09/16 04:23:43;;;;;;;8.55;2.65;;;16.70;99.90;;;;;;2071619;28;20037;-69
2021/09/16 04:24:44;;;;;;;6.13;2.85;;;16.80;99.90;;;;;;2070002;28;20026;-69
2021/09/16 04:25:45;;;;;;;6.38;2.72;;;16.80;99.90;;;;;;2069962;28;20041;-69
2021/09/16 04:26:46;;;;;;;7.32;2.50;;;16.80;99.90;;;;;;2071563;28;20359;-69
2021/09/16 04:27:47;;;;;;;5.38;2.67;;;16.80;99.90;;;;;;2070359;28;20045;-68
2021/09/16 04:28:48;;;;;;;5.57;2.45;;;16.70;99.90;;;;;;2063693;28;20022;-69
2021/09/16 04:29:48;;;;;;;5.03;2.17;;;16.70;99.90;;;;;;2068265;28;20069;-69
2021/09/16 04:30:49;;;;;;;4.78;2.40;;;16.70;99.90;;;;;;2063687;28;20056;-69
2021/09/16 04:31:49;;;;;;;7.25;2.40;;;16.70;99.90;;;;;;2063307;28;20022;-69
2021/09/16 04:32:50;;;;;;;6.10;2.58;;;16.70;99.90;;;;;;2062956;28;20639;-69
2021/09/16 04:33:50;;;;;;;6.15;2.40;;;16.70;99.90;;;;;;2063470;28;20022;-69
2021/09/16 04:34:51;;;;;;;6.95;2.25;;;16.60;99.90;;;;;;2065920;28;20049;-69
2021/09/16 04:35:51;;;;;;;5.00;2.05;;;16.60;99.90;;;;;;2071458;28;20026;-69
2021/09/16 04:36:52;;;;;;;5.18;1.95;;;16.60;99.90;;;;;;2071597;28;20034;-69
2021/09/16 04:37:52;;;;;;;5.25;2.10;;;16.60;99.90;;;;;;2067489;28;20474;-69
2021/09/16 04:38:53;;;;;;;6.72;2.47;;;16.60;99.90;;;;;;2063732;28;20077;-69
2021/09/16 04:39:53;;;;;;;5.88;2.45;;;16.60;99.90;;;;;;2066422;28;20044;-69
2021/09/16 04:40:54;;;;;;;5.60;2.45;;;16.60;99.90;;;;;;2069710;28;20096;-69
2021/09/16 04:41:55;;;;;;;7.55;2.25;;;16.60;99.90;;;;;;2063380;28;20092;-69
2021/09/16 04:42:55;;;;;;;8.20;2.67;;;16.50;99.90;;;;;;2063141;28;20033;-69
2021/09/16 04:43:56;;;;;;;4.53;2.28;;;16.50;99.90;;;;;;2070445;28;20038;-69
2021/09/16 04:44:56;;;;;;;6.22;2.92;;;16.50;99.90;;;;;;2071620;28;20049;-69
2021/09/16 04:45:57;;;;;;;6.15;2.45;;;16.50;99.90;;;;;;2067866;28;20125;-69
2021/09/16 04:46:57;;;;;;;5.35;2.63;;;16.50;99.90;;;;;;2063718;28;20042;-69
2021/09/16 04:47:58;;;;;;;6.43;2.70;;;16.40;99.90;;;;;;2063255;28;20030;-69
2021/09/16 04:48:59;;;;;;;5.47;2.78;;;16.40;99.90;;;;;;2071068;28;20056;-69
2021/09/16 04:49:59;;;;;;;6.60;2.78;;;16.40;99.90;;;;;;2066552;28;20023;-69
2021/09/16 04:51:00;;;;;;;5.43;2.90;;;16.40;99.90;;;;;;2067853;28;20030;-69
2021/09/16 04:52:00;;;;;;;8.20;2.80;;;16.40;99.90;;;;;;2070980;28;20389;-69
2021/09/16 04:53:01;;;;;;;7.85;3.13;;;16.40;99.90;;;;;;2071407;28;20029;-69
2021/09/16 04:54:02;;;;;;;4.60;2.50;;;16.40;99.90;;;;;;2068031;28;20545;-69
2021/09/16 04:55:03;;;;;;;10.98;3.25;;;16.40;99.90;;;;;;2063318;28;20378;-69
2021/09/16 04:56:04;;;;;;;7.22;3.10;;;16.40;99.90;;;;;;2063631;28;20030;-69
2021/09/16 04:57:04;;;;;;;10.00;3.08;;;16.40;99.90;;;;;;2063482;28;20014;-69
2021/09/16 04:58:05;;;;;;;7.95;2.80;;;16.30;99.90;;;;;;2063579;28;20019;-69
2021/09/16 04:59:05;;;;;;;12.07;3.42;;;16.30;99.90;;;;;;2063026;28;20030;-69
2021/09/16 05:00:07;;;;;;;6.82;3.00;;;16.30;99.90;;;;;;2075458;28;20474;-69
2021/09/16 05:01:08;;;;;;;4.47;2.53;;;16.30;99.90;;;;;;2080180;28;20424;-69
2021/09/16 05:02:08;;;;;;;5.97;2.20;;;16.30;99.90;;;;;;2068933;28;20097;-69
2021/09/16 05:03:09;;;;;;;6.68;2.55;;;16.30;99.90;;;;;;2065104;28;20022;-69
2021/09/16 05:04:10;;;;;;;4.60;2.75;;;16.30;99.90;;;;;;2072675;28;20029;-69
2021/09/16 05:05:10;;;;;;;9.43;3.20;;;16.30;99.90;;;;;;2064286;28;20503;-69
2021/09/16 05:06:11;;;;;;;5.68;3.10;;;16.30;99.90;;;;;;2065789;28;20022;-69
2021/09/16 05:07:11;;;;;;;6.38;2.92;;;16.20;99.90;;;;;;2063978;28;20497;-69
2021/09/16 05:08:13;;;;;;;7.50;2.97;;;16.20;99.90;;;;;;2065918;28;20026;-69
2021/09/16 05:09:14;;;;;;;7.65;2.83;;;16.20;99.90;;;;;;2072864;28;20374;-69
2021/09/16 05:10:14;;;;;;;5.30;2.42;;;16.20;99.90;;;;;;2066964;28;20101;-69
2021/09/16 05:11:15;;;;;;;6.75;3.40;;;16.20;99.90;;;;;;2064627;28;20029;-69
2021/09/16 05:12:15;;;;;;;9.18;3.58;;;16.20;99.90;;;;;;2064691;28;20455;-69
2021/09/16 05:13:16;;;;;;;6.03;3.13;;;16.20;99.90;;;;;;2065507;28;20022;-69
2021/09/16 05:14:17;;;;;;;7.22;2.97;;;16.20;99.90;;;;;;2064565;28;20025;-69
2021/09/16 05:15:17;;;;;;;10.20;3.65;;;16.10;99.90;;;;;;2064856;28;20022;-69